Airfield :







YOU CAN JOIN US ON...

 
LOGIN :

Register | Disclaimer

   EN    FR    IT 

 









Legend :    VFR   Marginal VFR   IFR   Intensive IFR   Very Intensive IFR
Visi :
Ceiling :
>= 8 km
>= 3000ft
5 to 8 km
1000 to 3000 ft
1500m to 5 km
500 to 1000 ft
800 to 1500m
200 to 500 ft
< 800m
< 200 ft
Symbols :   Thunderstorms  Fog  Heavy snow  Heavy precipitations  Wind > 20 kt






- Airport Elevation : 377 ft
- IATA code : YPS


CYPD - Port Hawkesbury

CURRENT METAR :
  • 280607Z AUTO 25002KT 8SM -SN -UP FEW010 BKN020 OVC025 01/M00 A2939 RMK SLP959

EXPIRED METARs :
  • 280553Z AUTO 25003KT 9SM -RA -UP BKN024 OVC038 01/M00 A2939 RMK SLP959
  • 280500Z AUTO 24003KT 9SM -RA OVC040 01/M00 A2939 RMK SLP959
  • 280436Z AUTO 24003KT 9SM -RA OVC044 01/M00 A2940 RMK SLP960
  • 280414Z AUTO 22003KT 9SM OVC050 01/M00 A2940 RMK SLP961
  • 280400Z AUTO 24003KT 9SM -RA OVC048 01/M00 A2940 RMK SLP962
  • 280349Z AUTO 26005KT 9SM -RA SCT041 OVC048 01/M00 A2940 RMK SLP962
  • 280340Z AUTO 27003KT 9SM FEW020 SCT037 OVC047 02/M00 A2940 RMK SLP962
  • 280327Z AUTO 25002KT 9SM -RA FEW020 BKN037 OVC049 02/00 A2941 RMK SLP964

TAF N/A



MET'MAP, your aeronautical weather chart ! - Copyright ORBIFLY December 2007 - Disclaimer

ORBIFLY MET'MAP TEAM :

Programming & Development : Alexandra Zaïnal
Concept & original design : Baudouin d'Aumeries
Assistance for programming : Marc-Olivier Méhu
Technical & hardware support : Manuel Goepfert

Contact : metmap@orbifly.com




SOURCES & CREDITS :

   NOAA